Istanbul/Atatürk Airport

Airport
ICAO code: 
LTBA
IATA Code: 
IST
Summary
ICAO Region: 
EUR
Territory: 
Location: 
Yeşilköy, Istanbul
Serving: 
Istanbul
Elevation: 
163 ft
Coordinates: 
Aerial View: 
40° 58' 28.632" N, 28° 48' 35.316" E
Metar
Observation
LTBA 032220Z 14007KT 060V190 CAVOK 15/10 Q1013 NOSIG
Station
Istanbul / Ataturk
Date/Time
2021-12-03 22:20:00
Wind direction
140°
Wind speed
07 kts
Lowest cloud amount
clouds and visibility OK
Temperature
15°C
Dew point
10°C
Humidity
72%
QNH
1013 hPa
Weather condition
n/a

Airport serving city of Istanbul. Until April 2019, it was the main international airport serving Istanbul.

Climatology

Dry-summer subtropical ”Mediterranean" climate (Köppen climate classification Csa)

Runways

Designator Length Width Surface Rops
5/23 2600 60 ASP Yes/Yes
17L/35R 3000 45 CON Yes/Yes
17R/35L 3000 45 CON Yes/Yes
Airport map: 
Aerial View: 

SKYbrary Partners:

Safety knowledge contributed by: